sensor_id;sensor_type;location;lat;lon;timestamp;pressure;altitude;pressure_sealevel;temperature;humidity
20160;BME280;50187;50.492;12.134;2024-03-29T00:02:00;96050.13;;;21.08;35.38
20160;BME280;50187;50.492;12.134;2024-03-29T00:04:45;96066.34;;;21.08;35.63
20160;BME280;50187;50.492;12.134;2024-03-29T00:07:29;96078.41;;;21.05;35.48
20160;BME280;50187;50.492;12.134;2024-03-29T00:10:14;96084.66;;;21.06;35.70
20160;BME280;50187;50.492;12.134;2024-03-29T00:12:58;96082.34;;;21.03;35.53
20160;BME280;50187;50.492;12.134;2024-03-29T00:15:45;96095.88;;;21.03;35.75
20160;BME280;50187;50.492;12.134;2024-03-29T00:18:29;96091.50;;;21.02;35.44
20160;BME280;50187;50.492;12.134;2024-03-29T00:21:18;96076.72;;;20.98;35.58
20160;BME280;50187;50.492;12.134;2024-03-29T00:24:02;96089.22;;;20.99;35.43
20160;BME280;50187;50.492;12.134;2024-03-29T00:26:46;96101.06;;;20.98;35.60
20160;BME280;50187;50.492;12.134;2024-03-29T00:29:31;96096.66;;;20.97;35.59
20160;BME280;50187;50.492;12.134;2024-03-29T00:32:15;96096.66;;;20.97;35.33
20160;BME280;50187;50.492;12.134;2024-03-29T00:35:00;96093.16;;;20.96;35.58
20160;BME280;50187;50.492;12.134;2024-03-29T00:37:44;96104.16;;;20.95;35.62
20160;BME280;50187;50.492;12.134;2024-03-29T00:40:29;96107.91;;;20.93;35.38
20160;BME280;50187;50.492;12.134;2024-03-29T00:43:14;96090.41;;;20.89;35.33
20160;BME280;50187;50.492;12.134;2024-03-29T00:45:58;96085.22;;;20.88;35.57
20160;BME280;50187;50.492;12.134;2024-03-29T00:48:42;96080.03;;;20.86;35.31
20160;BME280;50187;50.492;12.134;2024-03-29T00:51:29;96077.13;;;20.88;35.32
20160;BME280;50187;50.492;12.134;2024-03-29T00:56:58;96070.25;;;20.85;35.53
20160;BME280;50187;50.492;12.134;2024-03-29T00:59:44;96064.63;;;20.87;35.43
20160;BME280;50187;50.492;12.134;2024-03-29T01:02:28;96075.44;;;20.87;35.46
20160;BME280;50187;50.492;12.134;2024-03-29T01:05:13;96067.75;;;20.84;35.49
20160;BME280;50187;50.492;12.134;2024-03-29T01:07:57;96075.03;;;20.83;35.53
20160;BME280;50187;50.492;12.134;2024-03-29T01:10:42;96073.56;;;20.81;35.23
20160;BME280;50187;50.492;12.134;2024-03-29T01:13:26;96072.09;;;20.78;35.58
20160;BME280;50187;50.492;12.134;2024-03-29T01:16:11;96067.72;;;20.77;35.38
20160;BME280;50187;50.492;12.134;2024-03-29T01:18:56;96066.69;;;20.78;35.59
20160;BME280;50187;50.492;12.134;2024-03-29T01:21:40;96071.28;;;20.78;35.45
20160;BME280;50187;50.492;12.134;2024-03-29T01:24:25;96075.81;;;20.77;35.35
20160;BME280;50187;50.492;12.134;2024-03-29T01:27:09;96071.69;;;20.74;35.26
20160;BME280;50187;50.492;12.134;2024-03-29T01:29:55;96067.72;;;20.77;35.16
20160;BME280;50187;50.492;12.134;2024-03-29T01:32:39;96071.69;;;20.74;35.35
20160;BME280;50187;50.492;12.134;2024-03-29T01:35:24;96069.19;;;20.73;35.41
20160;BME280;50187;50.492;12.134;2024-03-29T01:38:08;96076.66;;;20.71;35.23
20160;BME280;50187;50.492;12.134;2024-03-29T01:40:53;96067.94;;;20.69;35.18
20160;BME280;50187;50.492;12.134;2024-03-29T01:43:37;96064.16;;;20.70;35.44
20160;BME280;50187;50.492;12.134;2024-03-29T01:46:23;96063.13;;;20.71;35.08
20160;BME280;50187;50.492;12.134;2024-03-29T01:49:08;96066.88;;;20.70;35.22
20160;BME280;50187;50.492;12.134;2024-03-29T01:51:53;96071.44;;;20.69;35.08
20160;BME280;50187;50.492;12.134;2024-03-29T01:54:37;96065.44;;;20.67;35.07
20160;BME280;50187;50.492;12.134;2024-03-29T01:57:22;96071.66;;;20.68;35.14
20160;BME280;50187;50.492;12.134;2024-03-29T02:00:07;96067.66;;;20.64;35.11
20160;BME280;50187;50.492;12.134;2024-03-29T02:02:52;96069.34;;;20.65;35.34
20160;BME280;50187;50.492;12.134;2024-03-29T02:05:37;96073.88;;;20.64;35.29
20160;BME280;50187;50.492;12.134;2024-03-29T02:08:21;96071.19;;;20.64;35.13
20160;BME280;50187;50.492;12.134;2024-03-29T02:11:06;96079.06;;;20.66;35.24
20160;BME280;50187;50.492;12.134;2024-03-29T02:13:50;96063.28;;;20.63;35.22
20160;BME280;50187;50.492;12.134;2024-03-29T02:16:36;96070.16;;;20.65;35.02
20160;BME280;50187;50.492;12.134;2024-03-29T02:19:22;96083.03;;;20.63;34.98
20160;BME280;50187;50.492;12.134;2024-03-29T02:22:07;96070.97;;;20.59;35.28
20160;BME280;50187;50.492;12.134;2024-03-29T02:24:54;96068.47;;;20.57;35.10
20160;BME280;50187;50.492;12.134;2024-03-29T02:27:39;96076.38;;;20.59;35.26
20160;BME280;50187;50.492;12.134;2024-03-29T02:30:24;96069.91;;;20.60;35.11
20160;BME280;50187;50.492;12.134;2024-03-29T02:33:08;96080.31;;;20.56;35.20
20160;BME280;50187;50.492;12.134;2024-03-29T02:35:52;96080.94;;;20.58;35.05
20160;BME280;50187;50.492;12.134;2024-03-29T02:38:37;96084.47;;;20.59;35.26
20160;BME280;50187;50.492;12.134;2024-03-29T02:41:22;96081.13;;;20.57;35.18
20160;BME280;50187;50.492;12.134;2024-03-29T02:44:06;96081.97;;;20.57;35.20
20160;BME280;50187;50.492;12.134;2024-03-29T02:46:51;96081.34;;;20.55;35.16
20160;BME280;50187;50.492;12.134;2024-03-29T02:49:35;96088.16;;;20.51;35.14
20160;BME280;50187;50.492;12.134;2024-03-29T02:52:20;96088.81;;;20.53;35.16
20160;BME280;50187;50.492;12.134;2024-03-29T02:55:04;96070.72;;;20.54;34.98
20160;BME280;50187;50.492;12.134;2024-03-29T02:57:49;96081.53;;;20.54;35.24
20160;BME280;50187;50.492;12.134;2024-03-29T03:00:33;96084.03;;;20.55;34.92
20160;BME280;50187;50.492;12.134;2024-03-29T03:03:18;96094.84;;;20.55;35.17
20160;BME280;50187;50.492;12.134;2024-03-29T03:06:02;96091.53;;;20.53;35.23
20160;BME280;50187;50.492;12.134;2024-03-29T03:08:46;96068.44;;;20.51;35.09
20160;BME280;50187;50.492;12.134;2024-03-29T03:11:49;96051.38;;;20.50;35.09
20160;BME280;50187;50.492;12.134;2024-03-29T03:14:34;96018.34;;;20.48;35.15
20160;BME280;50187;50.492;12.134;2024-03-29T03:17:18;96041.00;;;20.47;34.93
20160;BME280;50187;50.492;12.134;2024-03-29T03:20:03;96042.47;;;20.50;35.18
20160;BME280;50187;50.492;12.134;2024-03-29T03:22:51;96038.94;;;20.49;34.92
20160;BME280;50187;50.492;12.134;2024-03-29T03:25:35;96051.38;;;20.44;35.06
20160;BME280;50187;50.492;12.134;2024-03-29T03:28:19;96059.91;;;20.47;34.91
20160;BME280;50187;50.492;12.134;2024-03-29T03:31:04;96057.41;;;20.46;34.86
20160;BME280;50187;50.492;12.134;2024-03-29T03:33:48;96037.88;;;20.44;34.84
20160;BME280;50187;50.492;12.134;2024-03-29T03:36:33;96042.63;;;20.41;35.13
20160;BME280;50187;50.492;12.134;2024-03-29T03:39:17;96027.28;;;20.42;35.09
20160;BME280;50187;50.492;12.134;2024-03-29T03:42:02;96034.13;;;20.45;35.06
20160;BME280;50187;50.492;12.134;2024-03-29T03:44:46;96029.78;;;20.44;34.86
20160;BME280;50187;50.492;12.134;2024-03-29T03:47:31;96035.38;;;20.42;34.83
20160;BME280;50187;50.492;12.134;2024-03-29T03:50:15;96038.69;;;20.44;34.93
20160;BME280;50187;50.492;12.134;2024-03-29T03:53:00;96027.28;;;20.42;35.02
20160;BME280;50187;50.492;12.134;2024-03-29T03:55:44;96038.28;;;20.40;35.01
20160;BME280;50187;50.492;12.134;2024-03-29T03:58:29;96033.91;;;20.39;34.99
20160;BME280;50187;50.492;12.134;2024-03-29T04:01:14;96029.34;;;20.40;35.02
20160;BME280;50187;50.492;12.134;2024-03-29T04:03:58;95998.81;;;20.39;34.95
20160;BME280;50187;50.492;12.134;2024-03-29T04:06:43;96000.66;;;20.39;34.81
20160;BME280;50187;50.492;12.134;2024-03-29T04:09:27;96006.06;;;20.39;34.68
20160;BME280;50187;50.492;12.134;2024-03-29T04:12:12;96013.34;;;20.38;34.77
20160;BME280;50187;50.492;12.134;2024-03-29T04:14:56;96032.25;;;20.38;34.88
20160;BME280;50187;50.492;12.134;2024-03-29T04:17:41;96029.75;;;20.37;34.82
20160;BME280;50187;50.492;12.134;2024-03-29T04:20:25;96023.72;;;20.35;34.94
20160;BME280;50187;50.492;12.134;2024-03-29T04:23:10;96015.78;;;20.27;34.92
20160;BME280;50187;50.492;12.134;2024-03-29T04:25:57;96023.72;;;20.35;34.92
20160;BME280;50187;50.492;12.134;2024-03-29T04:28:42;96028.28;;;20.34;34.86
20160;BME280;50187;50.492;12.134;2024-03-29T04:31:27;96025.78;;;20.33;34.74
20160;BME280;50187;50.492;12.134;2024-03-29T04:34:11;96021.66;;;20.37;34.66
20160;BME280;50187;50.492;12.134;2024-03-29T04:36:56;96027.03;;;20.37;34.89
20160;BME280;50187;50.492;12.134;2024-03-29T04:39:42;96027.44;;;20.34;34.85
20160;BME280;50187;50.492;12.134;2024-03-29T04:42:27;96029.50;;;20.32;34.93
20160;BME280;50187;50.492;12.134;2024-03-29T04:45:11;96035.09;;;20.30;34.96
20160;BME280;50187;50.492;12.134;2024-03-29T04:47:56;96039.69;;;20.30;34.93
20160;BME280;50187;50.492;12.134;2024-03-29T04:50:40;96038.66;;;20.31;34.84
20160;BME280;50187;50.492;12.134;2024-03-29T04:53:25;96031.38;;;20.31;34.96
20160;BME280;50187;50.492;12.134;2024-03-29T04:56:09;96027.41;;;20.27;34.91
20160;BME280;50187;50.492;12.134;2024-03-29T04:58:54;96030.13;;;20.27;35.04
20160;BME280;50187;50.492;12.134;2024-03-29T05:01:39;96038.44;;;20.32;34.57
20160;BME280;50187;50.492;12.134;2024-03-29T05:04:23;96056.34;;;20.40;34.58
20160;BME280;50187;50.492;12.134;2024-03-29T05:07:11;96067.78;;;20.42;34.81
20160;BME280;50187;50.492;12.134;2024-03-29T05:09:55;96053.03;;;20.45;34.71
20160;BME280;50187;50.492;12.134;2024-03-29T05:12:39;96064.06;;;20.50;34.45
20160;BME280;50187;50.492;12.134;2024-03-29T05:15:23;96064.72;;;20.52;34.76
20160;BME280;50187;50.492;12.134;2024-03-29T05:18:08;96067.22;;;20.53;34.79
20160;BME280;50187;50.492;12.134;2024-03-29T05:20:52;96071.19;;;20.57;34.66
20160;BME280;50187;50.492;12.134;2024-03-29T05:23:37;96069.75;;;20.62;34.39
20160;BME280;50187;50.492;12.134;2024-03-29T05:26:21;96069.13;;;20.66;34.35
20160;BME280;50187;50.492;12.134;2024-03-29T05:29:06;96053.94;;;20.65;34.69
20160;BME280;50187;50.492;12.134;2024-03-29T05:31:51;96055.03;;;20.71;34.67
20160;BME280;50187;50.492;12.134;2024-03-29T05:34:36;96051.91;;;20.74;34.19
20160;BME280;50187;50.492;12.134;2024-03-29T05:37:20;96069.59;;;20.76;34.34
20160;BME280;50187;50.492;12.134;2024-03-29T05:40:06;96056.31;;;20.82;34.09
20160;BME280;50187;50.492;12.134;2024-03-29T05:42:51;96047.19;;;20.83;34.25
20160;BME280;50187;50.492;12.134;2024-03-29T05:45:36;96055.09;;;20.84;34.29
20160;BME280;50187;50.492;12.134;2024-03-29T05:48:20;96057.78;;;20.84;34.28
20160;BME280;50187;50.492;12.134;2024-03-29T05:51:05;96053.44;;;20.90;34.25
20160;BME280;50187;50.492;12.134;2024-03-29T05:53:49;96065.06;;;20.90;33.82
20160;BME280;50187;50.492;12.134;2024-03-29T05:56:34;96076.09;;;20.96;33.99
20160;BME280;50187;50.492;12.134;2024-03-29T05:59:18;96078.16;;;20.93;34.24
20160;BME280;50187;50.492;12.134;2024-03-29T06:02:04;96082.09;;;20.91;33.75
20160;BME280;50187;50.492;12.134;2024-03-29T06:04:48;96071.53;;;20.96;33.81
20160;BME280;50187;50.492;12.134;2024-03-29T06:07:33;96071.31;;;20.98;33.90
20160;BME280;50187;50.492;12.134;2024-03-29T06:10:17;96063.00;;;20.99;33.91
20160;BME280;50187;50.492;12.134;2024-03-29T06:13:02;96064.69;;;21.00;33.83
20160;BME280;50187;50.492;12.134;2024-03-29T06:16:01;96072.78;;;21.00;33.67
20160;BME280;50187;50.492;12.134;2024-03-29T06:19:04;96064.25;;;21.03;33.49
20160;BME280;50187;50.492;12.134;2024-03-29T06:21:49;96058.66;;;21.05;33.78
20160;BME280;50187;50.492;12.134;2024-03-29T06:24:33;96065.94;;;21.04;33.68
20160;BME280;50187;50.492;12.134;2024-03-29T06:27:19;96061.56;;;21.03;33.63
20160;BME280;50187;50.492;12.134;2024-03-29T06:30:06;96070.31;;;21.05;33.52
20160;BME280;50187;50.492;12.134;2024-03-29T06:32:52;96085.25;;;21.08;33.77
20160;BME280;50187;50.492;12.134;2024-03-29T06:35:36;96087.97;;;21.08;33.66
20160;BME280;50187;50.492;12.134;2024-03-29T06:38:21;96075.09;;;21.10;33.73
20160;BME280;50187;50.492;12.134;2024-03-29T06:41:05;96070.09;;;21.07;33.62
20160;BME280;50187;50.492;12.134;2024-03-29T06:43:50;96072.38;;;21.10;33.56
20160;BME280;50187;50.492;12.134;2024-03-29T06:46:34;96082.16;;;21.11;33.34
20160;BME280;50187;50.492;12.134;2024-03-29T06:49:19;96071.34;;;21.11;33.38
20160;BME280;50187;50.492;12.134;2024-03-29T06:52:03;96075.50;;;21.14;33.28
20160;BME280;50187;50.492;12.134;2024-03-29T06:54:48;96063.47;;;21.09;33.63
20160;BME280;50187;50.492;12.134;2024-03-29T06:57:32;96067.59;;;21.12;33.27
20160;BME280;50187;50.492;12.134;2024-03-29T07:00:19;96079.47;;;21.11;33.34
20160;BME280;50187;50.492;12.134;2024-03-29T07:03:03;96074.25;;;21.16;33.53
20160;BME280;50187;50.492;12.134;2024-03-29T07:05:48;96077.16;;;21.15;33.46
20160;BME280;50187;50.492;12.134;2024-03-29T07:08:32;96066.75;;;21.05;33.52
20160;BME280;50187;50.492;12.134;2024-03-29T07:11:18;96086.31;;;21.14;33.35
20160;BME280;50187;50.492;12.134;2024-03-29T07:14:02;96081.34;;;21.17;33.14
20160;BME280;50187;50.492;12.134;2024-03-29T07:16:47;96088.19;;;21.13;33.20
20160;BME280;50187;50.492;12.134;2024-03-29T07:19:31;96085.50;;;21.13;33.47
20160;BME280;50187;50.492;12.134;2024-03-29T07:22:16;96109.81;;;21.13;33.24
20160;BME280;50187;50.492;12.134;2024-03-29T07:25:00;96108.78;;;21.14;33.21
20160;BME280;50187;50.492;12.134;2024-03-29T07:27:45;96117.97;;;21.20;33.32
20160;BME280;50187;50.492;12.134;2024-03-29T07:30:30;96096.53;;;21.18;33.28
20160;BME280;50187;50.492;12.134;2024-03-29T07:33:15;96095.69;;;21.18;33.12
20160;BME280;50187;50.492;12.134;2024-03-29T07:35:59;96097.56;;;21.17;33.06
20160;BME280;50187;50.492;12.134;2024-03-29T07:38:44;96094.84;;;21.17;33.00
20160;BME280;50187;50.492;12.134;2024-03-29T07:41:28;96102.56;;;21.20;33.07
20160;BME280;50187;50.492;12.134;2024-03-29T07:44:13;96082.38;;;21.23;33.27
20160;BME280;50187;50.492;12.134;2024-03-29T07:46:57;96070.97;;;21.21;33.16
20160;BME280;50187;50.492;12.134;2024-03-29T07:49:42;96055.97;;;21.25;33.00
20160;BME280;50187;50.492;12.134;2024-03-29T07:52:26;96065.56;;;21.21;33.05
20160;BME280;50187;50.492;12.134;2024-03-29T07:55:11;96079.91;;;21.21;33.03
20160;BME280;50187;50.492;12.134;2024-03-29T07:57:55;96072.41;;;21.23;33.05
20160;BME280;50187;50.492;12.134;2024-03-29T08:00:40;96084.91;;;21.31;33.46
20160;BME280;50187;50.492;12.134;2024-03-29T08:03:25;96054.31;;;21.31;33.15
20160;BME280;50187;50.492;12.134;2024-03-29T08:06:10;96072.66;;;21.42;33.34
20160;BME280;50187;50.492;12.134;2024-03-29T08:08:54;96072.66;;;21.42;33.16
20160;BME280;50187;50.492;12.134;2024-03-29T08:11:40;96075.97;;;21.51;33.19
20160;BME280;50187;50.492;12.134;2024-03-29T08:14:24;96075.16;;;21.57;33.25
20160;BME280;50187;50.492;12.134;2024-03-29T08:17:11;96072.66;;;21.62;32.98
20160;BME280;50187;50.492;12.134;2024-03-29T08:19:55;96083.06;;;21.65;32.85
20160;BME280;50187;50.492;12.134;2024-03-29T08:22:40;96076.81;;;21.71;32.75
20160;BME280;50187;50.492;12.134;2024-03-29T08:25:24;96077.25;;;21.75;32.62
20160;BME280;50187;50.492;12.134;2024-03-29T08:28:11;96066.00;;;21.78;32.43
20160;BME280;50187;50.492;12.134;2024-03-29T08:31:04;96064.97;;;21.79;32.55
20160;BME280;50187;50.492;12.134;2024-03-29T08:33:49;96062.44;;;21.84;32.53
20160;BME280;50187;50.492;12.134;2024-03-29T08:36:33;96062.66;;;21.89;32.16
20160;BME280;50187;50.492;12.134;2024-03-29T08:39:18;96062.22;;;21.92;32.17
20160;BME280;50187;50.492;12.134;2024-03-29T08:42:03;96053.06;;;21.93;32.39
20160;BME280;50187;50.492;12.134;2024-03-29T08:44:49;96050.56;;;21.92;32.23
20160;BME280;50187;50.492;12.134;2024-03-29T08:47:34;96043.47;;;21.91;32.45
20160;BME280;50187;50.492;12.134;2024-03-29T08:50:18;96043.69;;;21.89;32.18
20160;BME280;50187;50.492;12.134;2024-03-29T08:53:03;96027.88;;;21.86;32.09
20160;BME280;50187;50.492;12.134;2024-03-29T08:55:48;96031.03;;;21.83;32.41
20160;BME280;50187;50.492;12.134;2024-03-29T08:58:32;96022.25;;;21.81;32.58
20160;BME280;50187;50.492;12.134;2024-03-29T09:01:17;96018.94;;;21.79;32.41
20160;BME280;50187;50.492;12.134;2024-03-29T09:04:01;96008.94;;;21.79;32.60
20160;BME280;50187;50.492;12.134;2024-03-29T09:06:45;96012.06;;;21.76;32.44
20160;BME280;50187;50.492;12.134;2024-03-29T09:09:31;96010.41;;;21.75;32.72
20160;BME280;50187;50.492;12.134;2024-03-29T09:12:16;96014.34;;;21.73;32.65
20160;BME280;50187;50.492;12.134;2024-03-29T09:15:02;96012.72;;;21.72;32.51
20160;BME280;50187;50.492;12.134;2024-03-29T09:17:49;96031.44;;;21.73;32.38
20160;BME280;50187;50.492;12.134;2024-03-29T09:20:34;96030.00;;;21.71;32.60
20160;BME280;50187;50.492;12.134;2024-03-29T09:23:18;96026.47;;;21.70;32.56
20160;BME280;50187;50.492;12.134;2024-03-29T09:26:07;96012.72;;;21.72;32.64
20160;BME280;50187;50.492;12.134;2024-03-29T09:28:52;96007.31;;;21.72;32.54
20160;BME280;50187;50.492;12.134;2024-03-29T09:31:37;96001.25;;;21.70;32.57
20160;BME280;50187;50.492;12.134;2024-03-29T09:34:21;95987.13;;;21.68;32.39
20160;BME280;50187;50.492;12.134;2024-03-29T09:37:07;95984.41;;;21.68;32.64
20160;BME280;50187;50.492;12.134;2024-03-29T09:39:51;95976.28;;;21.68;32.74
20160;BME280;50187;50.492;12.134;2024-03-29T09:42:38;95966.28;;;21.68;32.49
20160;BME280;50187;50.492;12.134;2024-03-29T09:45:23;95980.47;;;21.64;32.67
20160;BME280;50187;50.492;12.134;2024-03-29T09:48:08;95979.22;;;21.59;32.61
20160;BME280;50187;50.492;12.134;2024-03-29T09:50:53;95989.63;;;21.56;32.70
20160;BME280;50187;50.492;12.134;2024-03-29T09:53:41;95996.88;;;21.49;32.60
20160;BME280;50187;50.492;12.134;2024-03-29T09:56:27;95996.91;;;21.42;32.51
20160;BME280;50187;50.492;12.134;2024-03-29T09:59:11;95988.56;;;21.37;32.64
20160;BME280;50187;50.492;12.134;2024-03-29T10:01:56;95988.56;;;21.37;32.93
20160;BME280;50187;50.492;12.134;2024-03-29T10:04:41;95988.38;;;21.32;32.55
20160;BME280;50187;50.492;12.134;2024-03-29T10:07:27;95998.16;;;21.33;33.01
20160;BME280;50187;50.492;12.134;2024-03-29T10:10:11;95996.69;;;21.30;32.87
20160;BME280;50187;50.492;12.134;2024-03-29T10:12:56;96006.88;;;21.21;32.86
20160;BME280;50187;50.492;12.134;2024-03-29T10:15:40;96010.63;;;21.20;32.69
20160;BME280;50187;50.492;12.134;2024-03-29T10:18:29;96004.19;;;21.21;32.77
20160;BME280;50187;50.492;12.134;2024-03-29T10:21:16;96013.53;;;21.25;32.69
20160;BME280;50187;50.492;12.134;2024-03-29T10:24:11;96015.59;;;21.23;33.21
20160;BME280;50187;50.492;12.134;2024-03-29T10:26:55;96017.69;;;21.21;33.08
20160;BME280;50187;50.492;12.134;2024-03-29T10:29:40;96011.25;;;21.16;32.76
20160;BME280;50187;50.492;12.134;2024-03-29T10:32:24;96009.78;;;21.13;32.72
20160;BME280;50187;50.492;12.134;2024-03-29T10:35:09;96008.75;;;21.14;32.88
20160;BME280;50187;50.492;12.134;2024-03-29T10:37:54;96019.38;;;21.16;32.99
20160;BME280;50187;50.492;12.134;2024-03-29T10:40:39;96012.94;;;21.17;32.90
20160;BME280;50187;50.492;12.134;2024-03-29T10:43:24;96025.59;;;21.16;33.12
20160;BME280;50187;50.492;12.134;2024-03-29T10:46:10;96033.09;;;21.14;32.83
20160;BME280;50187;50.492;12.134;2024-03-29T10:48:54;96038.06;;;21.10;32.84
20160;BME280;50187;50.492;12.134;2024-03-29T10:51:41;96041.63;;;21.11;33.06
20160;BME280;50187;50.492;12.134;2024-03-29T10:54:25;96050.34;;;21.13;32.92
20160;BME280;50187;50.492;12.134;2024-03-29T10:57:20;96073.66;;;21.14;32.81
20160;BME280;50187;50.492;12.134;2024-03-29T11:00:14;96063.66;;;21.15;33.09
20160;BME280;50187;50.492;12.134;2024-03-29T11:03:13;96087.16;;;21.14;33.11
20160;BME280;50187;50.492;12.134;2024-03-29T11:06:03;96088.63;;;21.10;33.07
20160;BME280;50187;50.492;12.134;2024-03-29T11:08:50;96087.97;;;21.08;32.79
20160;BME280;50187;50.492;12.134;2024-03-29T11:11:37;96090.28;;;21.11;33.05
20160;BME280;50187;50.492;12.134;2024-03-29T11:14:44;96097.97;;;21.14;33.08
20160;BME280;50187;50.492;12.134;2024-03-29T11:17:30;96099.66;;;21.15;33.03
20160;BME280;50187;50.492;12.134;2024-03-29T11:20:15;96108.78;;;21.14;33.23
20160;BME280;50187;50.492;12.134;2024-03-29T11:23:06;96103.16;;;21.09;32.92
20160;BME280;50187;50.492;12.134;2024-03-29T11:25:55;96107.31;;;21.12;32.86
20160;BME280;50187;50.492;12.134;2024-03-29T11:28:50;96108.78;;;21.14;33.25
20160;BME280;50187;50.492;12.134;2024-03-29T11:31:38;96100.69;;;21.14;33.11
20160;BME280;50187;50.492;12.134;2024-03-29T11:34:22;96121.28;;;21.15;33.06
20160;BME280;50187;50.492;12.134;2024-03-29T11:37:09;96112.97;;;21.17;33.16
20160;BME280;50187;50.492;12.134;2024-03-29T11:39:54;96109.63;;;21.15;32.97
20160;BME280;50187;50.492;12.134;2024-03-29T11:42:46;96093.81;;;21.12;32.92
20160;BME280;50187;50.492;12.134;2024-03-29T11:45:31;96094.63;;;21.12;33.14
20160;BME280;50187;50.492;12.134;2024-03-29T11:48:23;96085.28;;;21.15;32.94
20160;BME280;50187;50.492;12.134;2024-03-29T11:51:12;96088.22;;;21.20;33.32
20160;BME280;50187;50.492;12.134;2024-03-29T11:53:59;96098.00;;;21.21;33.21
20160;BME280;50187;50.492;12.134;2024-03-29T11:56:44;96084.66;;;21.19;33.37
20160;BME280;50187;50.492;12.134;2024-03-29T11:59:28;96068.66;;;21.18;33.42
20160;BME280;50187;50.492;12.134;2024-03-29T12:02:13;96057.63;;;21.13;33.30
20160;BME280;50187;50.492;12.134;2024-03-29T12:05:06;96048.66;;;21.12;33.38
20160;BME280;50187;50.492;12.134;2024-03-29T12:07:52;96047.44;;;21.21;33.62
20160;BME280;50187;50.492;12.134;2024-03-29T12:10:37;96037.25;;;21.30;33.56
20160;BME280;50187;50.492;12.134;2024-03-29T12:13:21;96019.16;;;21.37;33.34
20160;BME280;50187;50.492;12.134;2024-03-29T12:16:07;96023.97;;;21.42;33.34
20160;BME280;50187;50.492;12.134;2024-03-29T12:18:52;96018.56;;;21.42;33.21
20160;BME280;50187;50.492;12.134;2024-03-29T12:21:36;96018.13;;;21.38;33.43
20160;BME280;50187;50.492;12.134;2024-03-29T12:24:21;96018.53;;;21.35;33.48
20160;BME280;50187;50.492;12.134;2024-03-29T12:27:05;96021.66;;;21.32;33.39
20160;BME280;50187;50.492;12.134;2024-03-29T12:29:51;96028.31;;;21.30;33.41
20160;BME280;50187;50.492;12.134;2024-03-29T12:32:35;96018.94;;;21.25;33.38
20160;BME280;50187;50.492;12.134;2024-03-29T12:35:21;96022.69;;;21.24;33.88
20160;BME280;50187;50.492;12.134;2024-03-29T12:38:06;96021.66;;;21.25;34.19
20160;BME280;50187;50.492;12.134;2024-03-29T12:40:53;96023.94;;;21.28;34.25
20160;BME280;50187;50.492;12.134;2024-03-29T12:43:39;96025.41;;;21.31;33.82
20160;BME280;50187;50.492;12.134;2024-03-29T12:46:25;96018.53;;;21.28;34.05
20160;BME280;50187;50.492;12.134;2024-03-29T12:49:10;96001.88;;;21.25;33.75
20160;BME280;50187;50.492;12.134;2024-03-29T12:51:57;95986.91;;;21.16;33.91
20160;BME280;50187;50.492;12.134;2024-03-29T12:54:41;95990.66;;;21.28;33.73
20160;BME280;50187;50.492;12.134;2024-03-29T12:57:26;95985.88;;;21.23;33.87
20160;BME280;50187;50.492;12.134;2024-03-29T13:00:11;95993.34;;;21.35;33.96
20160;BME280;50187;50.492;12.134;2024-03-29T13:02:56;95982.31;;;21.36;33.73
20160;BME280;50187;50.492;12.134;2024-03-29T13:05:40;95976.50;;;21.39;33.77
20160;BME280;50187;50.492;12.134;2024-03-29T13:08:25;95976.31;;;21.41;33.67
20160;BME280;50187;50.492;12.134;2024-03-29T13:11:10;95973.19;;;21.44;33.75
20160;BME280;50187;50.492;12.134;2024-03-29T13:13:55;95958.19;;;21.41;33.82
20160;BME280;50187;50.492;12.134;2024-03-29T13:16:39;95978.59;;;21.44;33.49
20160;BME280;50187;50.492;12.134;2024-03-29T13:19:25;95980.25;;;21.45;33.57
20160;BME280;50187;50.492;12.134;2024-03-29T13:22:09;95972.34;;;21.43;33.64
20160;BME280;50187;50.492;12.134;2024-03-29T13:24:53;95969.88;;;21.42;33.80
20160;BME280;50187;50.492;12.134;2024-03-29T13:27:38;95961.94;;;21.40;33.70
20160;BME280;50187;50.492;12.134;2024-03-29T13:30:24;95967.56;;;21.39;33.53
20160;BME280;50187;50.492;12.134;2024-03-29T13:33:09;95961.53;;;21.37;33.76
20160;BME280;50187;50.492;12.134;2024-03-29T13:35:57;95953.63;;;21.35;33.59
20160;BME280;50187;50.492;12.134;2024-03-29T13:38:42;95955.50;;;21.35;33.68
20160;BME280;50187;50.492;12.134;2024-03-29T13:41:26;95942.19;;;21.33;33.98
20160;BME280;50187;50.492;12.134;2024-03-29T13:44:10;95931.56;;;21.32;33.68
20160;BME280;50187;50.492;12.134;2024-03-29T13:46:55;95926.59;;;21.28;33.86
20160;BME280;50187;50.492;12.134;2024-03-29T13:49:39;95921.59;;;21.25;33.94
20160;BME280;50187;50.492;12.134;2024-03-29T13:52:24;95918.25;;;21.23;33.75
20160;BME280;50187;50.492;12.134;2024-03-29T13:55:08;95917.03;;;21.26;33.88
20160;BME280;50187;50.492;12.134;2024-03-29T13:57:53;95917.03;;;21.26;34.12
20160;BME280;50187;50.492;12.134;2024-03-29T14:00:39;95920.16;;;21.23;34.01
20160;BME280;50187;50.492;12.134;2024-03-29T14:03:25;95924.94;;;21.21;33.99
20160;BME280;50187;50.492;12.134;2024-03-29T14:06:10;95938.66;;;21.19;33.96
20160;BME280;50187;50.492;12.134;2024-03-29T14:08:54;95941.16;;;21.14;34.24
20160;BME280;50187;50.492;12.134;2024-03-29T14:11:39;95935.75;;;21.14;34.04
20160;BME280;50187;50.492;12.134;2024-03-29T14:14:24;95942.63;;;21.10;34.50
20160;BME280;50187;50.492;12.134;2024-03-29T14:17:08;95944.50;;;21.09;35.11
20160;BME280;50187;50.492;12.134;2024-03-29T14:19:52;95955.72;;;21.13;35.68
20160;BME280;50187;50.492;12.134;2024-03-29T14:22:37;95950.31;;;21.13;34.99
20160;BME280;50187;50.492;12.134;2024-03-29T14:25:22;95956.75;;;21.12;34.48
20160;BME280;50187;50.492;12.134;2024-03-29T14:28:07;95974.44;;;21.08;34.57